sensor_id;sensor_type;location;lat;lon;timestamp;P1;durP1;ratioP1;P2;durP2;ratioP2
67556;SDS011;54387;53.526;49.300;2023-07-29T00:00:04;13.05;;;6.03;;
67556;SDS011;54387;53.526;49.300;2023-07-29T00:02:31;12.77;;;6.47;;
67556;SDS011;54387;53.526;49.300;2023-07-29T00:04:58;15.13;;;6.20;;
67556;SDS011;54387;53.526;49.300;2023-07-29T00:07:24;12.18;;;6.00;;
67556;SDS011;54387;53.526;49.300;2023-07-29T00:09:50;16.10;;;6.10;;
67556;SDS011;54387;53.526;49.300;2023-07-29T00:12:17;11.13;;;6.40;;
67556;SDS011;54387;53.526;49.300;2023-07-29T00:14:44;15.00;;;6.18;;
67556;SDS011;54387;53.526;49.300;2023-07-29T00:17:11;12.15;;;6.97;;
67556;SDS011;54387;53.526;49.300;2023-07-29T00:19:38;12.65;;;6.80;;
67556;SDS011;54387;53.526;49.300;2023-07-29T00:22:04;17.33;;;6.13;;
67556;SDS011;54387;53.526;49.300;2023-07-29T00:24:31;13.75;;;6.90;;
67556;SDS011;54387;53.526;49.300;2023-07-29T00:26:57;13.13;;;6.53;;
67556;SDS011;54387;53.526;49.300;2023-07-29T00:29:24;12.80;;;6.53;;
67556;SDS011;54387;53.526;49.300;2023-07-29T00:31:50;15.85;;;6.93;;
67556;SDS011;54387;53.526;49.300;2023-07-29T00:34:16;10.15;;;6.15;;
67556;SDS011;54387;53.526;49.300;2023-07-29T00:36:45;11.77;;;6.82;;
67556;SDS011;54387;53.526;49.300;2023-07-29T00:39:12;12.90;;;6.35;;
67556;SDS011;54387;53.526;49.300;2023-07-29T00:41:38;11.90;;;7.07;;
67556;SDS011;54387;53.526;49.300;2023-07-29T00:44:05;16.15;;;7.10;;
67556;SDS011;54387;53.526;49.300;2023-07-29T00:46:33;12.45;;;6.50;;
67556;SDS011;54387;53.526;49.300;2023-07-29T00:49:00;13.18;;;6.22;;
67556;SDS011;54387;53.526;49.300;2023-07-29T00:51:26;13.52;;;6.15;;
67556;SDS011;54387;53.526;49.300;2023-07-29T00:53:53;22.30;;;6.65;;
67556;SDS011;54387;53.526;49.300;2023-07-29T00:56:19;13.98;;;6.45;;
67556;SDS011;54387;53.526;49.300;2023-07-29T00:58:46;10.90;;;6.57;;
67556;SDS011;54387;53.526;49.300;2023-07-29T01:01:12;11.32;;;5.50;;
67556;SDS011;54387;53.526;49.300;2023-07-29T01:03:39;12.43;;;6.30;;
67556;SDS011;54387;53.526;49.300;2023-07-29T01:06:08;13.10;;;6.43;;
67556;SDS011;54387;53.526;49.300;2023-07-29T01:08:54;14.07;;;6.35;;
67556;SDS011;54387;53.526;49.300;2023-07-29T01:16:39;15.10;;;6.43;;
67556;SDS011;54387;53.526;49.300;2023-07-29T01:19:09;13.82;;;6.00;;
67556;SDS011;54387;53.526;49.300;2023-07-29T01:21:58;15.48;;;6.30;;
67556;SDS011;54387;53.526;49.300;2023-07-29T01:24:26;11.30;;;6.10;;
67556;SDS011;54387;53.526;49.300;2023-07-29T01:26:52;13.15;;;6.00;;
67556;SDS011;54387;53.526;49.300;2023-07-29T01:29:18;12.30;;;5.88;;
67556;SDS011;54387;53.526;49.300;2023-07-29T01:31:45;11.10;;;6.00;;
67556;SDS011;54387;53.526;49.300;2023-07-29T01:34:21;9.93;;;5.68;;
67556;SDS011;54387;53.526;49.300;2023-07-29T01:36:54;15.75;;;6.30;;
67556;SDS011;54387;53.526;49.300;2023-07-29T01:39:23;14.63;;;6.43;;
67556;SDS011;54387;53.526;49.300;2023-07-29T01:41:55;14.05;;;6.32;;
67556;SDS011;54387;53.526;49.300;2023-07-29T01:44:21;13.77;;;5.88;;
67556;SDS011;54387;53.526;49.300;2023-07-29T01:46:48;14.13;;;5.97;;
67556;SDS011;54387;53.526;49.300;2023-07-29T01:49:15;14.05;;;6.10;;
67556;SDS011;54387;53.526;49.300;2023-07-29T01:51:42;15.15;;;5.68;;
67556;SDS011;54387;53.526;49.300;2023-07-29T01:54:09;14.45;;;6.60;;
67556;SDS011;54387;53.526;49.300;2023-07-29T01:56:35;12.23;;;6.35;;
67556;SDS011;54387;53.526;49.300;2023-07-29T01:59:02;13.45;;;5.95;;
67556;SDS011;54387;53.526;49.300;2023-07-29T02:01:29;15.07;;;6.70;;
67556;SDS011;54387;53.526;49.300;2023-07-29T02:03:57;13.27;;;6.05;;
67556;SDS011;54387;53.526;49.300;2023-07-29T02:06:23;14.55;;;6.50;;
67556;SDS011;54387;53.526;49.300;2023-07-29T02:08:50;13.23;;;5.97;;
67556;SDS011;54387;53.526;49.300;2023-07-29T02:11:17;11.55;;;6.55;;
67556;SDS011;54387;53.526;49.300;2023-07-29T02:13:46;8.57;;;5.72;;
67556;SDS011;54387;53.526;49.300;2023-07-29T02:16:12;12.52;;;6.22;;
67556;SDS011;54387;53.526;49.300;2023-07-29T02:18:40;12.95;;;6.55;;
67556;SDS011;54387;53.526;49.300;2023-07-29T02:21:06;13.77;;;5.95;;
67556;SDS011;54387;53.526;49.300;2023-07-29T02:23:33;9.68;;;5.93;;
67556;SDS011;54387;53.526;49.300;2023-07-29T02:25:59;12.27;;;5.90;;
67556;SDS011;54387;53.526;49.300;2023-07-29T02:28:26;13.15;;;7.03;;
67556;SDS011;54387;53.526;49.300;2023-07-29T02:33:51;9.48;;;6.30;;
67556;SDS011;54387;53.526;49.300;2023-07-29T02:36:18;14.55;;;6.72;;
67556;SDS011;54387;53.526;49.300;2023-07-29T02:38:44;13.32;;;6.70;;
67556;SDS011;54387;53.526;49.300;2023-07-29T02:41:11;16.45;;;6.43;;
67556;SDS011;54387;53.526;49.300;2023-07-29T02:43:38;12.98;;;6.95;;
67556;SDS011;54387;53.526;49.300;2023-07-29T02:46:06;12.68;;;6.28;;
67556;SDS011;54387;53.526;49.300;2023-07-29T02:48:33;12.30;;;6.65;;
67556;SDS011;54387;53.526;49.300;2023-07-29T02:50:59;15.70;;;6.38;;
67556;SDS011;54387;53.526;49.300;2023-07-29T02:53:26;11.80;;;6.38;;
67556;SDS011;54387;53.526;49.300;2023-07-29T02:55:52;13.77;;;6.38;;
67556;SDS011;54387;53.526;49.300;2023-07-29T02:58:20;12.70;;;6.75;;
67556;SDS011;54387;53.526;49.300;2023-07-29T03:00:46;14.57;;;6.65;;
67556;SDS011;54387;53.526;49.300;2023-07-29T03:03:14;14.48;;;6.80;;
67556;SDS011;54387;53.526;49.300;2023-07-29T03:05:40;17.70;;;6.07;;
67556;SDS011;54387;53.526;49.300;2023-07-29T03:08:07;10.75;;;5.82;;
67556;SDS011;54387;53.526;49.300;2023-07-29T03:10:34;10.38;;;6.05;;
67556;SDS011;54387;53.526;49.300;2023-07-29T03:13:01;14.13;;;5.97;;
67556;SDS011;54387;53.526;49.300;2023-07-29T03:15:28;14.35;;;6.30;;
67556;SDS011;54387;53.526;49.300;2023-07-29T03:17:55;8.88;;;5.60;;
67556;SDS011;54387;53.526;49.300;2023-07-29T03:20:21;10.40;;;5.80;;
67556;SDS011;54387;53.526;49.300;2023-07-29T03:22:48;16.42;;;6.25;;
67556;SDS011;54387;53.526;49.300;2023-07-29T03:25:14;11.85;;;6.25;;
67556;SDS011;54387;53.526;49.300;2023-07-29T03:27:40;11.30;;;5.15;;
67556;SDS011;54387;53.526;49.300;2023-07-29T03:30:07;12.70;;;5.82;;
67556;SDS011;54387;53.526;49.300;2023-07-29T03:32:34;10.43;;;5.82;;
67556;SDS011;54387;53.526;49.300;2023-07-29T03:35:00;9.07;;;5.63;;
67556;SDS011;54387;53.526;49.300;2023-07-29T03:37:27;11.65;;;6.55;;
67556;SDS011;54387;53.526;49.300;2023-07-29T03:39:53;11.45;;;5.50;;
67556;SDS011;54387;53.526;49.300;2023-07-29T03:42:20;7.50;;;5.28;;
67556;SDS011;54387;53.526;49.300;2023-07-29T03:44:46;10.98;;;5.50;;
67556;SDS011;54387;53.526;49.300;2023-07-29T03:47:13;15.73;;;6.25;;
67556;SDS011;54387;53.526;49.300;2023-07-29T03:49:39;14.63;;;5.82;;
67556;SDS011;54387;53.526;49.300;2023-07-29T03:52:05;10.55;;;5.43;;
67556;SDS011;54387;53.526;49.300;2023-07-29T03:54:32;8.32;;;4.60;;
67556;SDS011;54387;53.526;49.300;2023-07-29T03:56:59;13.60;;;6.00;;
67556;SDS011;54387;53.526;49.300;2023-07-29T03:59:25;12.80;;;5.75;;
67556;SDS011;54387;53.526;49.300;2023-07-29T04:01:51;9.38;;;5.18;;
67556;SDS011;54387;53.526;49.300;2023-07-29T04:04:18;13.48;;;5.70;;
67556;SDS011;54387;53.526;49.300;2023-07-29T04:06:44;10.27;;;5.70;;
67556;SDS011;54387;53.526;49.300;2023-07-29T04:09:11;10.27;;;5.05;;
67556;SDS011;54387;53.526;49.300;2023-07-29T04:11:37;12.30;;;5.07;;
67556;SDS011;54387;53.526;49.300;2023-07-29T04:14:04;9.00;;;4.93;;
67556;SDS011;54387;53.526;49.300;2023-07-29T04:16:31;9.80;;;5.03;;
67556;SDS011;54387;53.526;49.300;2023-07-29T04:18:57;13.52;;;5.93;;
67556;SDS011;54387;53.526;49.300;2023-07-29T04:21:24;11.57;;;5.63;;
67556;SDS011;54387;53.526;49.300;2023-07-29T04:23:50;17.85;;;6.07;;
67556;SDS011;54387;53.526;49.300;2023-07-29T04:26:17;11.68;;;5.45;;
67556;SDS011;54387;53.526;49.300;2023-07-29T04:28:43;10.48;;;4.55;;
67556;SDS011;54387;53.526;49.300;2023-07-29T04:31:10;9.88;;;4.90;;
67556;SDS011;54387;53.526;49.300;2023-07-29T04:33:36;11.88;;;5.47;;
67556;SDS011;54387;53.526;49.300;2023-07-29T04:36:03;12.35;;;5.30;;
67556;SDS011;54387;53.526;49.300;2023-07-29T04:38:30;8.98;;;5.10;;
67556;SDS011;54387;53.526;49.300;2023-07-29T04:40:59;9.40;;;4.80;;
67556;SDS011;54387;53.526;49.300;2023-07-29T04:43:28;10.05;;;4.78;;
67556;SDS011;54387;53.526;49.300;2023-07-29T04:45:56;10.40;;;5.15;;
67556;SDS011;54387;53.526;49.300;2023-07-29T04:48:23;7.93;;;4.30;;
67556;SDS011;54387;53.526;49.300;2023-07-29T04:50:49;10.68;;;4.72;;
67556;SDS011;54387;53.526;49.300;2023-07-29T04:53:16;9.30;;;4.90;;
67556;SDS011;54387;53.526;49.300;2023-07-29T04:55:42;9.82;;;5.10;;
67556;SDS011;54387;53.526;49.300;2023-07-29T04:58:09;10.32;;;5.18;;
67556;SDS011;54387;53.526;49.300;2023-07-29T05:00:36;10.13;;;4.85;;
67556;SDS011;54387;53.526;49.300;2023-07-29T05:03:02;9.38;;;4.80;;
67556;SDS011;54387;53.526;49.300;2023-07-29T05:05:29;8.90;;;4.47;;
67556;SDS011;54387;53.526;49.300;2023-07-29T05:07:55;7.85;;;4.47;;
67556;SDS011;54387;53.526;49.300;2023-07-29T05:10:22;7.65;;;4.75;;
67556;SDS011;54387;53.526;49.300;2023-07-29T05:12:48;6.78;;;4.78;;
67556;SDS011;54387;53.526;49.300;2023-07-29T05:15:15;6.22;;;3.92;;
67556;SDS011;54387;53.526;49.300;2023-07-29T05:17:41;8.80;;;4.38;;
67556;SDS011;54387;53.526;49.300;2023-07-29T05:20:08;10.07;;;4.57;;
67556;SDS011;54387;53.526;49.300;2023-07-29T05:22:34;10.10;;;4.10;;
67556;SDS011;54387;53.526;49.300;2023-07-29T05:25:01;9.75;;;4.45;;
67556;SDS011;54387;53.526;49.300;2023-07-29T05:27:27;9.43;;;4.22;;
67556;SDS011;54387;53.526;49.300;2023-07-29T05:29:54;9.40;;;4.80;;
67556;SDS011;54387;53.526;49.300;2023-07-29T05:32:20;8.98;;;4.40;;
67556;SDS011;54387;53.526;49.300;2023-07-29T05:34:47;9.82;;;4.38;;
67556;SDS011;54387;53.526;49.300;2023-07-29T05:37:16;11.52;;;4.45;;
67556;SDS011;54387;53.526;49.300;2023-07-29T05:39:42;9.93;;;4.55;;
67556;SDS011;54387;53.526;49.300;2023-07-29T05:42:09;8.48;;;4.60;;
67556;SDS011;54387;53.526;49.300;2023-07-29T05:44:35;9.00;;;4.40;;
67556;SDS011;54387;53.526;49.300;2023-07-29T05:47:02;6.05;;;3.92;;
67556;SDS011;54387;53.526;49.300;2023-07-29T05:49:28;11.57;;;4.30;;
67556;SDS011;54387;53.526;49.300;2023-07-29T05:51:55;6.32;;;4.00;;
67556;SDS011;54387;53.526;49.300;2023-07-29T05:54:22;8.30;;;4.38;;
67556;SDS011;54387;53.526;49.300;2023-07-29T05:56:48;9.73;;;4.50;;
67556;SDS011;54387;53.526;49.300;2023-07-29T05:59:15;7.45;;;4.22;;
67556;SDS011;54387;53.526;49.300;2023-07-29T06:01:41;5.78;;;3.90;;
67556;SDS011;54387;53.526;49.300;2023-07-29T06:04:07;9.40;;;4.30;;
67556;SDS011;54387;53.526;49.300;2023-07-29T06:06:34;8.50;;;4.32;;
67556;SDS011;54387;53.526;49.300;2023-07-29T06:09:00;7.85;;;4.00;;
67556;SDS011;54387;53.526;49.300;2023-07-29T06:11:27;7.85;;;4.38;;
67556;SDS011;54387;53.526;49.300;2023-07-29T06:13:53;12.50;;;4.15;;
67556;SDS011;54387;53.526;49.300;2023-07-29T06:16:19;5.28;;;3.65;;
67556;SDS011;54387;53.526;49.300;2023-07-29T06:18:46;7.22;;;3.95;;
67556;SDS011;54387;53.526;49.300;2023-07-29T06:21:12;8.85;;;4.25;;
67556;SDS011;54387;53.526;49.300;2023-07-29T06:23:43;9.45;;;4.60;;
67556;SDS011;54387;53.526;49.300;2023-07-29T06:26:09;6.45;;;3.78;;
67556;SDS011;54387;53.526;49.300;2023-07-29T06:28:36;8.07;;;3.83;;
67556;SDS011;54387;53.526;49.300;2023-07-29T06:31:03;7.43;;;3.78;;
67556;SDS011;54387;53.526;49.300;2023-07-29T06:33:29;8.77;;;4.28;;
67556;SDS011;54387;53.526;49.300;2023-07-29T06:35:56;7.45;;;3.63;;
67556;SDS011;54387;53.526;49.300;2023-07-29T06:38:22;6.82;;;4.22;;
67556;SDS011;54387;53.526;49.300;2023-07-29T06:40:49;6.75;;;3.60;;
67556;SDS011;54387;53.526;49.300;2023-07-29T06:43:15;12.52;;;3.88;;
67556;SDS011;54387;53.526;49.300;2023-07-29T06:45:42;6.28;;;3.42;;
67556;SDS011;54387;53.526;49.300;2023-07-29T06:48:08;6.18;;;3.55;;
67556;SDS011;54387;53.526;49.300;2023-07-29T06:50:35;9.15;;;3.85;;
67556;SDS011;54387;53.526;49.300;2023-07-29T06:53:01;11.55;;;3.60;;
67556;SDS011;54387;53.526;49.300;2023-07-29T06:55:28;6.63;;;3.67;;
67556;SDS011;54387;53.526;49.300;2023-07-29T06:57:55;5.57;;;3.78;;
67556;SDS011;54387;53.526;49.300;2023-07-29T07:00:21;6.45;;;3.13;;
67556;SDS011;54387;53.526;49.300;2023-07-29T07:02:48;8.38;;;3.50;;
67556;SDS011;54387;53.526;49.300;2023-07-29T07:05:14;5.97;;;3.60;;
67556;SDS011;54387;53.526;49.300;2023-07-29T07:07:40;7.93;;;3.53;;
67556;SDS011;54387;53.526;49.300;2023-07-29T07:10:07;10.15;;;3.35;;
67556;SDS011;54387;53.526;49.300;2023-07-29T07:12:34;9.38;;;3.25;;
67556;SDS011;54387;53.526;49.300;2023-07-29T07:15:01;6.88;;;3.50;;
67556;SDS011;54387;53.526;49.300;2023-07-29T07:17:27;8.85;;;3.53;;
67556;SDS011;54387;53.526;49.300;2023-07-29T07:19:54;5.53;;;4.10;;
67556;SDS011;54387;53.526;49.300;2023-07-29T07:22:20;7.18;;;3.20;;
67556;SDS011;54387;53.526;49.300;2023-07-29T07:24:47;5.30;;;3.13;;
67556;SDS011;54387;53.526;49.300;2023-07-29T07:27:13;9.48;;;3.53;;
67556;SDS011;54387;53.526;49.300;2023-07-29T07:29:40;9.95;;;3.50;;
67556;SDS011;54387;53.526;49.300;2023-07-29T07:32:08;5.85;;;3.40;;
67556;SDS011;54387;53.526;49.300;2023-07-29T07:34:35;5.93;;;3.92;;
67556;SDS011;54387;53.526;49.300;2023-07-29T07:37:01;5.80;;;3.92;;
67556;SDS011;54387;53.526;49.300;2023-07-29T07:39:29;10.75;;;3.47;;
67556;SDS011;54387;53.526;49.300;2023-07-29T07:41:57;7.50;;;3.53;;
67556;SDS011;54387;53.526;49.300;2023-07-29T07:44:23;6.95;;;3.50;;
67556;SDS011;54387;53.526;49.300;2023-07-29T07:46:52;4.93;;;3.40;;
67556;SDS011;54387;53.526;49.300;2023-07-29T07:49:19;5.22;;;3.00;;
67556;SDS011;54387;53.526;49.300;2023-07-29T07:51:45;8.63;;;3.70;;
67556;SDS011;54387;53.526;49.300;2023-07-29T07:54:12;6.15;;;3.50;;
67556;SDS011;54387;53.526;49.300;2023-07-29T07:56:38;6.25;;;3.40;;
67556;SDS011;54387;53.526;49.300;2023-07-29T07:59:05;7.10;;;3.42;;
67556;SDS011;54387;53.526;49.300;2023-07-29T08:01:35;8.38;;;3.55;;
67556;SDS011;54387;53.526;49.300;2023-07-29T08:04:02;7.55;;;3.45;;
67556;SDS011;54387;53.526;49.300;2023-07-29T08:06:29;18.98;;;4.28;;
67556;SDS011;54387;53.526;49.300;2023-07-29T08:08:57;6.80;;;3.60;;
67556;SDS011;54387;53.526;49.300;2023-07-29T08:11:23;5.78;;;3.50;;
67556;SDS011;54387;53.526;49.300;2023-07-29T08:13:50;6.60;;;3.85;;
67556;SDS011;54387;53.526;49.300;2023-07-29T08:16:17;11.68;;;3.88;;
67556;SDS011;54387;53.526;49.300;2023-07-29T08:18:43;8.15;;;3.53;;
67556;SDS011;54387;53.526;49.300;2023-07-29T08:21:10;8.52;;;3.83;;
67556;SDS011;54387;53.526;49.300;2023-07-29T08:23:36;6.28;;;3.65;;
67556;SDS011;54387;53.526;49.300;2023-07-29T08:26:03;9.75;;;3.88;;
67556;SDS011;54387;53.526;49.300;2023-07-29T08:28:32;11.60;;;3.45;;
67556;SDS011;54387;53.526;49.300;2023-07-29T08:31:01;8.85;;;3.97;;
67556;SDS011;54387;53.526;49.300;2023-07-29T08:33:28;4.93;;;3.53;;
67556;SDS011;54387;53.526;49.300;2023-07-29T08:35:55;8.65;;;3.90;;
67556;SDS011;54387;53.526;49.300;2023-07-29T08:38:22;14.90;;;3.70;;
67556;SDS011;54387;53.526;49.300;2023-07-29T08:43:19;5.53;;;3.33;;
67556;SDS011;54387;53.526;49.300;2023-07-29T08:45:48;6.00;;;3.67;;
67556;SDS011;54387;53.526;49.300;2023-07-29T08:48:17;7.38;;;3.60;;
67556;SDS011;54387;53.526;49.300;2023-07-29T08:50:49;10.90;;;3.75;;
67556;SDS011;54387;53.526;49.300;2023-07-29T08:53:18;9.32;;;4.05;;
67556;SDS011;54387;53.526;49.300;2023-07-29T08:55:45;14.10;;;3.78;;
67556;SDS011;54387;53.526;49.300;2023-07-29T08:58:12;14.25;;;4.28;;
67556;SDS011;54387;53.526;49.300;2023-07-29T09:00:38;6.70;;;3.90;;
67556;SDS011;54387;53.526;49.300;2023-07-29T09:03:05;8.70;;;4.30;;
67556;SDS011;54387;53.526;49.300;2023-07-29T09:05:33;8.00;;;3.70;;
67556;SDS011;54387;53.526;49.300;2023-07-29T09:08:01;5.10;;;3.50;;
67556;SDS011;54387;53.526;49.300;2023-07-29T09:10:29;6.60;;;4.10;;
67556;SDS011;54387;53.526;49.300;2023-07-29T09:12:55;7.97;;;4.18;;
67556;SDS011;54387;53.526;49.300;2023-07-29T09:15:28;6.03;;;3.70;;
67556;SDS011;54387;53.526;49.300;2023-07-29T09:17:56;8.43;;;3.85;;
67556;SDS011;54387;53.526;49.300;2023-07-29T09:20:24;10.40;;;3.80;;
67556;SDS011;54387;53.526;49.300;2023-07-29T09:22:54;8.10;;;4.30;;
67556;SDS011;54387;53.526;49.300;2023-07-29T09:25:24;11.40;;;4.13;;
67556;SDS011;54387;53.526;49.300;2023-07-29T09:27:52;11.23;;;4.30;;
67556;SDS011;54387;53.526;49.300;2023-07-29T09:30:25;11.90;;;3.50;;
67556;SDS011;54387;53.526;49.300;2023-07-29T09:32:55;7.03;;;4.00;;
67556;SDS011;54387;53.526;49.300;2023-07-29T09:35:23;8.60;;;3.50;;
67556;SDS011;54387;53.526;49.300;2023-07-29T09:37:51;5.20;;;3.70;;
67556;SDS011;54387;53.526;49.300;2023-07-29T09:40:18;10.02;;;4.20;;
67556;SDS011;54387;53.526;49.300;2023-07-29T09:42:49;5.80;;;4.15;;
67556;SDS011;54387;53.526;49.300;2023-07-29T09:45:25;7.93;;;4.25;;
67556;SDS011;54387;53.526;49.300;2023-07-29T09:47:53;10.40;;;3.40;;
67556;SDS011;54387;53.526;49.300;2023-07-29T09:50:25;4.88;;;3.15;;
67556;SDS011;54387;53.526;49.300;2023-07-29T09:52:53;7.97;;;3.65;;
67556;SDS011;54387;53.526;49.300;2023-07-29T09:55:21;7.80;;;3.53;;
67556;SDS011;54387;53.526;49.300;2023-07-29T09:57:58;7.65;;;3.45;;
67556;SDS011;54387;53.526;49.300;2023-07-29T10:00:28;6.57;;;3.83;;
67556;SDS011;54387;53.526;49.300;2023-07-29T10:02:55;6.47;;;3.90;;
67556;SDS011;54387;53.526;49.300;2023-07-29T10:05:25;7.00;;;4.00;;
67556;SDS011;54387;53.526;49.300;2023-07-29T10:07:52;7.55;;;4.20;;
67556;SDS011;54387;53.526;49.300;2023-07-29T10:10:20;6.88;;;3.42;;
67556;SDS011;54387;53.526;49.300;2023-07-29T10:12:47;8.07;;;3.50;;
67556;SDS011;54387;53.526;49.300;2023-07-29T10:15:13;4.55;;;3.63;;
67556;SDS011;54387;53.526;49.300;2023-07-29T10:17:40;12.70;;;4.35;;
67556;SDS011;54387;53.526;49.300;2023-07-29T10:20:07;5.93;;;3.65;;
67556;SDS011;54387;53.526;49.300;2023-07-29T10:22:39;6.72;;;3.28;;
67556;SDS011;54387;53.526;49.300;2023-07-29T10:25:13;6.93;;;3.47;;
67556;SDS011;54387;53.526;49.300;2023-07-29T10:27:49;5.63;;;3.85;;
67556;SDS011;54387;53.526;49.300;2023-07-29T10:30:24;17.02;;;3.35;;
67556;SDS011;54387;53.526;49.300;2023-07-29T10:32:52;5.97;;;3.63;;
67556;SDS011;54387;53.526;49.300;2023-07-29T10:35:20;6.75;;;3.40;;
67556;SDS011;54387;53.526;49.300;2023-07-29T10:37:47;6.18;;;3.10;;
67556;SDS011;54387;53.526;49.300;2023-07-29T10:40:16;7.60;;;3.50;;
67556;SDS011;54387;53.526;49.300;2023-07-29T10:42:59;6.00;;;3.22;;
67556;SDS011;54387;53.526;49.300;2023-07-29T10:45:36;6.75;;;3.30;;
67556;SDS011;54387;53.526;49.300;2023-07-29T10:48:13;6.85;;;3.20;;
67556;SDS011;54387;53.526;49.300;2023-07-29T10:51:35;6.80;;;3.60;;
67556;SDS011;54387;53.526;49.300;2023-07-29T10:54:08;6.25;;;3.38;;
67556;SDS011;54387;53.526;49.300;2023-07-29T10:56:41;8.13;;;3.08;;
67556;SDS011;54387;53.526;49.300;2023-07-29T11:01:39;6.47;;;3.50;;
67556;SDS011;54387;53.526;49.300;2023-07-29T11:12:34;4.15;;;3.45;;
67556;SDS011;54387;53.526;49.300;2023-07-29T11:17:35;5.57;;;3.30;;
67556;SDS011;54387;53.526;49.300;2023-07-29T11:20:10;5.25;;;3.70;;
67556;SDS011;54387;53.526;49.300;2023-07-29T11:22:38;3.97;;;3.08;;
67556;SDS011;54387;53.526;49.300;2023-07-29T11:25:05;4.65;;;3.53;;
67556;SDS011;54387;53.526;49.300;2023-07-29T11:27:35;7.72;;;3.00;;
67556;SDS011;54387;53.526;49.300;2023-07-29T11:30:06;6.70;;;3.30;;
67556;SDS011;54387;53.526;49.300;2023-07-29T11:32:34;5.70;;;3.25;;
67556;SDS011;54387;53.526;49.300;2023-07-29T11:35:08;5.75;;;3.35;;
67556;SDS011;54387;53.526;49.300;2023-07-29T11:37:37;7.00;;;3.20;;
67556;SDS011;54387;53.526;49.300;2023-07-29T11:40:04;5.95;;;3.65;;
67556;SDS011;54387;53.526;49.300;2023-07-29T11:42:33;10.07;;;3.42;;
67556;SDS011;54387;53.526;49.300;2023-07-29T11:45:03;4.55;;;2.92;;
67556;SDS011;54387;53.526;49.300;2023-07-29T11:47:34;7.72;;;3.35;;
67556;SDS011;54387;53.526;49.300;2023-07-29T11:50:03;7.30;;;3.47;;
67556;SDS011;54387;53.526;49.300;2023-07-29T11:52:34;5.80;;;3.08;;
67556;SDS011;54387;53.526;49.300;2023-07-29T11:55:02;6.95;;;3.30;;
67556;SDS011;54387;53.526;49.300;2023-07-29T11:57:30;5.05;;;3.08;;
67556;SDS011;54387;53.526;49.300;2023-07-29T11:59:59;7.38;;;3.45;;
67556;SDS011;54387;53.526;49.300;2023-07-29T12:02:29;7.30;;;3.53;;
67556;SDS011;54387;53.526;49.300;2023-07-29T12:04:56;99.68;;;10.48;;
67556;SDS011;54387;53.526;49.300;2023-07-29T12:07:25;98.15;;;10.88;;
67556;SDS011;54387;53.526;49.300;2023-07-29T12:09:52;124.63;;;14.20;;
67556;SDS011;54387;53.526;49.300;2023-07-29T12:12:18;57.38;;;7.18;;
67556;SDS011;54387;53.526;49.300;2023-07-29T12:14:47;31.52;;;5.32;;
67556;SDS011;54387;53.526;49.300;2023-07-29T12:17:14;29.33;;;5.63;;
67556;SDS011;54387;53.526;49.300;2023-07-29T12:19:41;17.80;;;5.13;;
67556;SDS011;54387;53.526;49.300;2023-07-29T12:22:08;12.52;;;4.90;;
67556;SDS011;54387;53.526;49.300;2023-07-29T12:24:37;12.95;;;4.88;;
67556;SDS011;54387;53.526;49.300;2023-07-29T12:27:05;9.25;;;4.78;;
67556;SDS011;54387;53.526;49.300;2023-07-29T12:29:39;12.25;;;5.15;;
67556;SDS011;54387;53.526;49.300;2023-07-29T12:32:07;11.75;;;5.22;;
67556;SDS011;54387;53.526;49.300;2023-07-29T12:34:34;10.15;;;4.60;;
67556;SDS011;54387;53.526;49.300;2023-07-29T12:37:03;9.40;;;4.35;;
67556;SDS011;54387;53.526;49.300;2023-07-29T12:39:35;8.35;;;5.35;;
67556;SDS011;54387;53.526;49.300;2023-07-29T12:42:05;10.25;;;5.40;;
67556;SDS011;54387;53.526;49.300;2023-07-29T12:44:33;10.77;;;5.82;;
67556;SDS011;54387;53.526;49.300;2023-07-29T12:47:01;9.75;;;5.57;;
67556;SDS011;54387;53.526;49.300;2023-07-29T12:49:28;12.75;;;6.18;;
67556;SDS011;54387;53.526;49.300;2023-07-29T12:51:56;15.70;;;7.57;;
67556;SDS011;54387;53.526;49.300;2023-07-29T12:54:23;7.85;;;4.97;;
67556;SDS011;54387;53.526;49.300;2023-07-29T12:56:49;6.10;;;4.38;;
67556;SDS011;54387;53.526;49.300;2023-07-29T12:59:16;6.78;;;4.60;;
67556;SDS011;54387;53.526;49.300;2023-07-29T13:01:42;7.90;;;4.50;;
67556;SDS011;54387;53.526;49.300;2023-07-29T13:04:09;6.97;;;4.55;;
67556;SDS011;54387;53.526;49.300;2023-07-29T13:06:36;10.02;;;4.47;;
67556;SDS011;54387;53.526;49.300;2023-07-29T13:09:02;6.32;;;3.70;;
67556;SDS011;54387;53.526;49.300;2023-07-29T13:11:30;6.93;;;3.45;;
67556;SDS011;54387;53.526;49.300;2023-07-29T13:14:00;6.30;;;3.20;;
67556;SDS011;54387;53.526;49.300;2023-07-29T13:16:27;8.38;;;3.15;;
67556;SDS011;54387;53.526;49.300;2023-07-29T13:18:54;4.60;;;2.67;;
67556;SDS011;54387;53.526;49.300;2023-07-29T13:21:21;5.63;;;3.22;;
67556;SDS011;54387;53.526;49.300;2023-07-29T13:23:48;4.47;;;2.83;;
67556;SDS011;54387;53.526;49.300;2023-07-29T13:26:14;4.68;;;2.97;;
67556;SDS011;54387;53.526;49.300;2023-07-29T13:28:41;5.10;;;2.72;;
67556;SDS011;54387;53.526;49.300;2023-07-29T13:31:10;7.00;;;3.05;;
67556;SDS011;54387;53.526;49.300;2023-07-29T13:33:36;4.78;;;2.88;;
67556;SDS011;54387;53.526;49.300;2023-07-29T13:36:03;4.82;;;2.40;;
67556;SDS011;54387;53.526;49.300;2023-07-29T13:38:29;3.83;;;2.55;;
67556;SDS011;54387;53.526;49.300;2023-07-29T13:40:56;5.30;;;3.00;;
67556;SDS011;54387;53.526;49.300;2023-07-29T13:43:23;4.47;;;3.08;;
67556;SDS011;54387;53.526;49.300;2023-07-29T13:45:49;7.72;;;3.22;;
67556;SDS011;54387;53.526;49.300;2023-07-29T13:48:16;5.55;;;3.10;;
67556;SDS011;54387;53.526;49.300;2023-07-29T13:50:42;5.90;;;3.15;;
67556;SDS011;54387;53.526;49.300;2023-07-29T13:53:09;7.28;;;2.88;;
67556;SDS011;54387;53.526;49.300;2023-07-29T13:55:36;6.35;;;3.10;;
67556;SDS011;54387;53.526;49.300;2023-07-29T13:58:02;6.80;;;3.17;;
67556;SDS011;54387;53.526;49.300;2023-07-29T14:00:29;6.15;;;3.17;;
67556;SDS011;54387;53.526;49.300;2023-07-29T14:02:55;4.65;;;3.13;;
67556;SDS011;54387;53.526;49.300;2023-07-29T14:05:22;7.38;;;4.05;;
67556;SDS011;54387;53.526;49.300;2023-07-29T14:07:48;6.47;;;3.95;;
67556;SDS011;54387;53.526;49.300;2023-07-29T14:10:14;8.80;;;4.15;;
67556;SDS011;54387;53.526;49.300;2023-07-29T14:12:41;7.63;;;4.05;;
67556;SDS011;54387;53.526;49.300;2023-07-29T14:15:07;5.95;;;4.00;;
67556;SDS011;54387;53.526;49.300;2023-07-29T14:17:34;6.93;;;4.32;;
67556;SDS011;54387;53.526;49.300;2023-07-29T14:20:01;9.20;;;4.22;;
67556;SDS011;54387;53.526;49.300;2023-07-29T14:22:28;7.70;;;4.50;;
67556;SDS011;54387;53.526;49.300;2023-07-29T14:24:55;6.65;;;3.95;;
67556;SDS011;54387;53.526;49.300;2023-07-29T14:27:22;7.07;;;4.15;;
67556;SDS011;54387;53.526;49.300;2023-07-29T14:29:49;6.65;;;3.53;;
67556;SDS011;54387;53.526;49.300;2023-07-29T14:32:15;7.93;;;4.38;;
67556;SDS011;54387;53.526;49.300;2023-07-29T14:34:42;7.75;;;4.38;;
67556;SDS011;54387;53.526;49.300;2023-07-29T14:37:08;9.98;;;4.38;;
67556;SDS011;54387;53.526;49.300;2023-07-29T14:39:34;10.77;;;4.20;;
67556;SDS011;54387;53.526;49.300;2023-07-29T14:42:01;6.80;;;4.00;;
67556;SDS011;54387;53.526;49.300;2023-07-29T14:44:28;6.32;;;4.07;;
67556;SDS011;54387;53.526;49.300;2023-07-29T14:46:54;10.45;;;4.10;;
67556;SDS011;54387;53.526;49.300;2023-07-29T14:49:21;8.55;;;4.25;;
67556;SDS011;54387;53.526;49.300;2023-07-29T14:51:47;8.35;;;3.65;;
67556;SDS011;54387;53.526;49.300;2023-07-29T14:54:14;7.22;;;3.67;;